createdAt,value
2022-11-12T00:02:45.295Z,14.85
2022-11-12T00:05:47.347Z,17.30
2022-11-12T00:09:02.278Z,14.93
2022-11-12T00:12:17.294Z,13.40
2022-11-12T00:15:19.814Z,11.47
2022-11-12T00:18:34.244Z,10.90
2022-11-12T00:21:36.051Z,11.25
2022-11-12T00:24:50.254Z,11.77
2022-11-12T00:28:09.145Z,10.67
2022-11-12T00:31:24.276Z,10.97
2022-11-12T00:34:33.298Z,9.77
2022-11-12T00:37:42.204Z,10.13
2022-11-12T00:40:51.313Z,10.10
2022-11-12T00:43:59.883Z,10.37
2022-11-12T00:47:08.372Z,9.77
2022-11-12T00:50:17.035Z,9.65
2022-11-12T00:53:25.330Z,10.45
2022-11-12T00:56:35.608Z,9.73
2022-11-12T00:59:50.311Z,10.23
2022-11-12T01:02:59.355Z,9.30
2022-11-12T01:06:13.453Z,8.85
2022-11-12T01:09:21.525Z,9.23
2022-11-12T01:12:31.999Z,9.55
2022-11-12T01:15:40.317Z,9.43
2022-11-12T01:19:00.363Z,9.80
2022-11-12T01:22:08.311Z,10.25
2022-11-12T01:25:17.094Z,9.43
2022-11-12T01:28:42.407Z,9.27
2022-11-12T01:31:50.335Z,10.03
2022-11-12T01:34:59.035Z,10.70
2022-11-12T01:38:07.289Z,8.98
2022-11-12T01:41:27.382Z,9.48
2022-11-12T01:44:46.310Z,9.68
2022-11-12T01:47:58.293Z,8.80
2022-11-12T01:51:07.926Z,9.00
2022-11-12T01:54:25.340Z,9.82
2022-11-12T01:57:35.151Z,9.88
2022-11-12T02:00:52.397Z,10.77
2022-11-12T02:03:54.278Z,10.47
2022-11-12T02:07:09.390Z,11.30
2022-11-12T02:10:20.238Z,13.23
2022-11-12T02:13:29.377Z,12.30
2022-11-12T02:16:47.324Z,12.60
2022-11-12T02:19:59.534Z,13.23
2022-11-12T02:23:15.395Z,12.03
2022-11-12T02:26:23.371Z,13.75
2022-11-12T02:29:45.355Z,11.73
2022-11-12T02:32:47.200Z,11.77
2022-11-12T02:36:02.346Z,12.33
2022-11-12T02:39:10.963Z,12.47
2022-11-12T02:42:19.349Z,13.70
2022-11-12T02:45:28.477Z,10.70
2022-11-12T02:48:43.367Z,11.50
2022-11-12T02:51:45.289Z,13.50
2022-11-12T02:55:01.390Z,14.27
2022-11-12T02:58:09.421Z,13.57
2022-11-12T03:01:18.086Z,12.73
2022-11-12T03:04:26.378Z,11.98
2022-11-12T03:07:35.000Z,12.00
2022-11-12T03:10:46.335Z,12.27
2022-11-12T03:13:54.965Z,11.43
2022-11-12T03:17:03.383Z,11.88
2022-11-12T03:20:19.344Z,12.05
2022-11-12T03:23:21.227Z,14.10
2022-11-12T03:26:36.401Z,12.83
2022-11-12T03:29:44.687Z,12.98
2022-11-12T03:32:59.354Z,13.45
2022-11-12T03:36:01.184Z,13.18
2022-11-12T03:39:16.361Z,12.50
2022-11-12T03:42:24.492Z,13.70
2022-11-12T03:45:39.373Z,13.45
2022-11-12T03:48:48.392Z,13.23
2022-11-12T03:52:03.374Z,13.80
2022-11-12T03:55:20.350Z,13.93
2022-11-12T03:58:35.363Z,15.00
2022-11-12T04:01:43.393Z,14.10
2022-11-12T04:04:52.974Z,15.23
2022-11-12T04:08:06.375Z,15.32
2022-11-12T04:11:23.397Z,15.20
2022-11-12T04:14:25.156Z,15.57
2022-11-12T04:17:40.375Z,14.63
2022-11-12T04:20:42.906Z,14.43
2022-11-12T04:23:57.417Z,14.65
2022-11-12T04:27:07.987Z,14.53
2022-11-12T04:30:30.379Z,14.30
2022-11-12T04:33:38.407Z,15.05
2022-11-12T04:36:53.399Z,15.35
2022-11-12T04:40:01.970Z,16.08
2022-11-12T04:43:20.425Z,15.10
2022-11-12T04:46:35.370Z,16.40
2022-11-12T04:49:44.070Z,15.43
2022-11-12T04:52:52.391Z,16.55
2022-11-12T04:56:07.390Z,15.35
2022-11-12T04:59:16.485Z,14.63
2022-11-12T05:02:35.384Z,14.23
2022-11-12T05:05:43.382Z,13.85
2022-11-12T05:08:51.898Z,13.60
2022-11-12T05:12:06.403Z,14.93
2022-11-12T05:15:09.163Z,13.93
2022-11-12T05:18:23.585Z,13.27
2022-11-12T05:21:43.331Z,13.55
2022-11-12T05:24:46.186Z,13.32
2022-11-12T05:28:07.454Z,13.98
2022-11-12T05:31:09.169Z,14.03
2022-11-12T05:34:23.409Z,14.77
2022-11-12T05:37:25.259Z,14.13
2022-11-12T05:40:41.446Z,14.00
2022-11-12T05:43:49.979Z,14.68
2022-11-12T05:46:58.438Z,14.37
2022-11-12T05:50:14.471Z,13.73
2022-11-12T05:53:16.346Z,13.15
2022-11-12T05:56:31.408Z,14.40
2022-11-12T05:59:40.092Z,14.38
2022-11-12T06:02:48.570Z,14.03
2022-11-12T06:05:57.335Z,14.00
2022-11-12T06:09:05.425Z,14.73
2022-11-12T06:12:14.027Z,14.73
2022-11-12T06:15:22.430Z,14.27
2022-11-12T06:18:37.423Z,15.13
2022-11-12T06:21:45.464Z,14.70
2022-11-12T06:25:00.434Z,14.05
2022-11-12T06:28:08.719Z,14.07
2022-11-12T06:31:24.432Z,14.50
2022-11-12T06:34:26.284Z,14.27
2022-11-12T06:37:41.430Z,14.67
2022-11-12T06:40:49.438Z,14.60
2022-11-12T06:43:57.971Z,14.93
2022-11-12T06:47:06.451Z,14.52
2022-11-12T06:50:15.353Z,15.17
2022-11-12T06:53:31.442Z,15.93
2022-11-12T06:56:33.239Z,14.27
2022-11-12T06:59:48.477Z,14.32
2022-11-12T07:02:57.596Z,15.18
2022-11-12T07:06:15.506Z,18.33
2022-11-12T07:09:17.367Z,14.80
2022-11-12T07:12:32.483Z,14.77
2022-11-12T07:15:40.487Z,14.30
2022-11-12T07:18:49.666Z,15.60
2022-11-12T07:21:58.477Z,13.80
2022-11-12T07:25:07.423Z,13.90
2022-11-12T07:28:22.486Z,13.98
2022-11-12T07:31:31.178Z,14.80
2022-11-12T07:34:45.469Z,14.65
2022-11-12T07:37:59.409Z,14.20
2022-11-12T07:41:12.459Z,14.77
2022-11-12T07:44:27.507Z,15.60
2022-11-12T07:47:36.142Z,15.35
2022-11-12T07:50:44.502Z,14.48
2022-11-12T07:53:58.993Z,13.23
2022-11-12T07:57:07.519Z,15.07
2022-11-12T08:00:22.797Z,15.20
2022-11-12T08:03:40.530Z,15.30
2022-11-12T08:06:49.548Z,15.18
2022-11-12T08:09:58.058Z,14.55
2022-11-12T08:13:06.500Z,14.75
2022-11-12T08:16:15.121Z,15.73
2022-11-12T08:19:29.506Z,19.60
2022-11-12T08:22:31.867Z,15.40
2022-11-12T08:25:46.468Z,15.65
2022-11-12T08:28:54.843Z,14.75
2022-11-12T08:32:09.483Z,15.63
2022-11-12T08:35:11.522Z,16.45
2022-11-12T08:38:26.824Z,15.43
2022-11-12T08:41:35.509Z,16.27
2022-11-12T08:44:50.505Z,15.32
2022-11-12T08:47:52.298Z,14.53
2022-11-12T08:51:09.522Z,15.15
2022-11-12T08:54:17.562Z,17.10
2022-11-12T08:57:26.134Z,16.75
2022-11-12T09:00:44.524Z,16.37
2022-11-12T09:03:46.347Z,17.07
2022-11-12T09:07:01.621Z,16.20
2022-11-12T09:10:04.262Z,16.60
2022-11-12T09:13:18.514Z,16.05
2022-11-12T09:16:33.540Z,17.20
2022-11-12T09:19:42.984Z,17.63
2022-11-12T09:22:52.363Z,16.83
2022-11-12T09:26:02.548Z,17.40
2022-11-12T09:29:17.815Z,16.40
2022-11-12T09:32:26.543Z,18.08
2022-11-12T09:35:41.563Z,17.63
2022-11-12T09:38:56.531Z,17.65
2022-11-12T09:42:01.962Z,18.33
2022-11-12T09:45:27.526Z,17.25
2022-11-12T09:48:42.567Z,18.70
2022-11-12T09:52:01.147Z,17.10
2022-11-12T09:55:19.562Z,17.20
2022-11-12T09:58:28.359Z,19.02
2022-11-12T10:01:54.611Z,19.02
2022-11-12T10:05:27.568Z,18.35
2022-11-12T10:08:49.455Z,18.70
2022-11-12T10:12:19.634Z,19.83
2022-11-12T10:15:43.572Z,18.62
2022-11-12T10:22:45.583Z,18.25
2022-11-12T10:26:06.639Z,18.33
2022-11-12T10:29:44.561Z,19.62
2022-11-12T10:32:53.237Z,18.02
2022-11-12T10:36:23.549Z,17.87
2022-11-12T10:39:42.576Z,19.37
2022-11-12T10:43:09.626Z,17.23
2022-11-12T10:46:19.427Z,18.62
2022-11-12T10:49:34.571Z,18.73
2022-11-12T10:52:43.590Z,18.85
2022-11-12T10:56:09.603Z,17.98
2022-11-12T10:59:23.055Z,18.90
2022-11-12T11:02:37.619Z,18.62
2022-11-12T11:06:05.600Z,19.67
2022-11-12T11:09:24.570Z,17.85
2022-11-12T11:12:36.615Z,19.37
2022-11-12T11:16:10.554Z,20.07
2022-11-12T11:19:12.335Z,20.85
2022-11-12T11:22:46.692Z,18.65
2022-11-12T11:25:57.600Z,18.05
2022-11-12T11:29:40.593Z,18.80
2022-11-12T11:33:13.964Z,17.77
2022-11-12T11:36:54.626Z,19.70
2022-11-12T11:40:26.824Z,19.95
2022-11-12T11:43:53.472Z,18.37
2022-11-12T11:47:44.148Z,17.87
2022-11-12T11:51:30.615Z,18.13
2022-11-12T11:55:05.592Z,18.37
2022-11-12T11:58:49.616Z,18.55
2022-11-12T12:02:26.642Z,18.00
2022-11-12T12:05:44.104Z,17.87
2022-11-12T12:09:33.601Z,19.00
2022-11-12T12:13:10.621Z,18.15
2022-11-12T12:16:39.106Z,20.52
2022-11-12T12:20:09.626Z,19.17
2022-11-12T12:23:38.034Z,19.23
2022-11-12T12:26:57.650Z,17.27
2022-11-12T12:30:28.655Z,19.48
2022-11-12T12:33:40.190Z,17.80
2022-11-12T12:36:58.607Z,13.93
2022-11-12T12:40:15.959Z,15.75
2022-11-12T12:43:53.621Z,16.67
2022-11-12T12:47:07.654Z,15.52
2022-11-12T12:50:20.502Z,18.48
2022-11-12T12:53:41.686Z,19.20
2022-11-12T12:56:56.620Z,18.67
2022-11-12T13:00:24.820Z,18.27
2022-11-12T13:04:06.419Z,18.23
2022-11-12T13:07:14.749Z,19.37
2022-11-12T13:10:54.668Z,19.35
2022-11-12T13:14:49.715Z,19.40
2022-11-12T13:17:51.653Z,18.40
2022-11-12T13:21:17.763Z,16.90
2022-11-12T13:24:55.642Z,19.45
2022-11-12T13:28:12.269Z,17.87
2022-11-12T13:31:33.687Z,19.60
2022-11-12T13:34:42.326Z,15.30
2022-11-12T13:37:52.646Z,12.82
2022-11-12T13:41:16.720Z,14.10
2022-11-12T13:44:33.716Z,13.05
2022-11-12T13:47:43.532Z,12.63
2022-11-12T13:50:58.694Z,12.87
2022-11-12T13:54:34.758Z,17.23
2022-11-12T13:57:36.586Z,18.42
2022-11-12T14:01:02.748Z,13.68
2022-11-12T14:04:14.260Z,12.60
2022-11-12T14:07:49.690Z,11.60
2022-11-12T14:11:34.681Z,10.73
2022-11-12T14:15:14.663Z,11.32
2022-11-12T14:18:42.711Z,9.93
2022-11-12T14:22:19.760Z,9.45
2022-11-12T14:25:25.117Z,10.43
2022-11-12T14:28:42.670Z,10.10
2022-11-12T14:31:51.702Z,11.20
2022-11-12T14:35:06.704Z,11.25
2022-11-12T14:38:18.208Z,11.77
2022-11-12T14:41:41.687Z,11.47
2022-11-12T14:44:49.685Z,13.05
2022-11-12T14:48:04.983Z,12.52
2022-11-12T14:51:11.563Z,13.85
2022-11-12T14:54:37.723Z,13.20
2022-11-12T14:57:46.928Z,12.67
2022-11-12T15:00:55.745Z,12.02
2022-11-12T15:04:25.791Z,13.10
2022-11-12T15:07:56.722Z,14.57
2022-11-12T15:11:23.709Z,15.43
2022-11-12T15:14:33.403Z,13.60
2022-11-12T15:17:43.716Z,14.75
2022-11-12T15:21:12.755Z,14.75
2022-11-12T15:24:25.719Z,14.52
2022-11-12T15:27:49.754Z,14.75
2022-11-12T15:31:06.731Z,14.20
2022-11-12T15:34:37.723Z,15.55
2022-11-12T15:37:42.758Z,16.02
2022-11-12T15:41:01.738Z,15.45
2022-11-12T15:44:03.643Z,15.40
2022-11-12T15:47:27.815Z,15.37
2022-11-12T15:50:36.338Z,15.18
2022-11-12T15:53:44.721Z,15.80
2022-11-12T15:56:59.801Z,15.20
2022-11-12T16:00:12.778Z,16.83
2022-11-12T16:03:29.101Z,15.73
2022-11-12T16:06:31.196Z,16.70
2022-11-12T16:09:45.733Z,17.25
2022-11-12T16:12:47.650Z,16.23
2022-11-12T16:16:03.718Z,17.92
2022-11-12T16:19:20.755Z,16.70
2022-11-12T16:22:35.734Z,17.30
2022-11-12T16:25:51.746Z,17.45
2022-11-12T16:29:00.005Z,17.50
2022-11-12T16:32:19.774Z,18.77
2022-11-12T16:35:21.627Z,17.57
2022-11-12T16:38:36.827Z,16.92
2022-11-12T16:41:38.677Z,18.17
2022-11-12T16:44:53.743Z,16.62
2022-11-12T16:47:56.219Z,19.67
2022-11-12T16:51:10.777Z,16.73
2022-11-12T16:54:12.658Z,17.85
2022-11-12T16:57:27.815Z,18.08
2022-11-12T17:00:35.741Z,17.83
2022-11-12T17:03:50.805Z,18.65
2022-11-12T17:06:59.354Z,17.60
2022-11-12T17:10:07.745Z,19.02
2022-11-12T17:13:16.365Z,18.90
2022-11-12T17:16:24.783Z,17.62
2022-11-12T17:19:33.387Z,18.05
2022-11-12T17:22:43.849Z,18.93
2022-11-12T17:26:06.812Z,18.55
2022-11-12T17:29:15.822Z,18.58
2022-11-12T17:32:38.085Z,17.67
2022-11-12T17:35:46.619Z,19.62
2022-11-12T17:38:55.779Z,18.33
2022-11-12T17:42:04.661Z,18.50
2022-11-12T17:45:13.827Z,20.40
2022-11-12T17:48:29.778Z,19.70
2022-11-12T17:51:31.751Z,20.50
2022-11-12T17:54:46.812Z,18.33
2022-11-12T17:57:49.223Z,20.25
2022-11-12T18:01:12.212Z,19.67
2022-11-12T18:04:30.811Z,20.10
2022-11-12T18:07:33.166Z,20.23
2022-11-12T18:10:47.832Z,19.90
2022-11-12T18:13:56.722Z,19.50
2022-11-12T18:17:11.811Z,19.80
2022-11-12T18:20:20.135Z,19.42
2022-11-12T18:23:30.076Z,19.45
2022-11-12T18:26:44.814Z,20.27
2022-11-12T18:29:53.161Z,19.50
2022-11-12T18:33:07.829Z,19.77
2022-11-12T18:36:13.092Z,19.37
2022-11-12T18:39:27.887Z,20.67
2022-11-12T18:42:36.532Z,20.67
2022-11-12T18:45:44.824Z,18.77
2022-11-12T18:48:59.850Z,21.73
2022-11-12T18:52:01.683Z,20.40
2022-11-12T18:55:16.838Z,21.52
2022-11-12T18:58:30.532Z,20.63
2022-11-12T19:01:50.868Z,19.25
2022-11-12T19:04:53.410Z,21.35
2022-11-12T19:08:07.879Z,20.48
2022-11-12T19:11:14.415Z,21.05
2022-11-12T19:14:30.844Z,21.40
2022-11-12T19:17:45.878Z,20.80
2022-11-12T19:20:54.869Z,20.65
2022-11-12T19:24:09.823Z,19.50
2022-11-12T19:27:24.832Z,20.12
2022-11-12T19:30:39.810Z,20.00
2022-11-12T19:33:49.300Z,20.20
2022-11-12T19:37:19.252Z,21.45
2022-11-12T19:40:26.551Z,20.27
2022-11-12T19:43:34.807Z,21.42
2022-11-12T19:46:49.870Z,21.47
2022-11-12T19:49:57.814Z,21.27
2022-11-12T19:53:12.841Z,20.50
2022-11-12T19:56:15.646Z,21.20
2022-11-12T19:59:30.882Z,21.55
2022-11-12T20:02:38.887Z,21.03
2022-11-12T20:05:47.546Z,20.20
2022-11-12T20:08:55.857Z,20.88
2022-11-12T20:12:05.005Z,21.40
2022-11-12T20:15:19.903Z,21.70
2022-11-12T20:18:21.833Z,25.20
2022-11-12T20:24:50.843Z,21.60
2022-11-12T20:27:58.857Z,21.73
2022-11-12T20:31:16.700Z,23.20
2022-11-12T20:34:31.907Z,21.83
2022-11-12T20:37:33.703Z,21.95
2022-11-12T20:40:49.901Z,22.58
2022-11-12T20:44:05.900Z,20.48
2022-11-12T20:47:07.752Z,21.58
2022-11-12T20:50:23.897Z,21.57
2022-11-12T20:53:32.581Z,21.10
2022-11-12T20:56:46.895Z,21.08
2022-11-12T20:59:55.388Z,20.15
2022-11-12T21:03:03.892Z,21.10
2022-11-12T21:06:21.925Z,22.43
2022-11-12T21:09:31.043Z,20.12
2022-11-12T21:12:38.956Z,20.27
2022-11-12T21:15:48.494Z,20.50
2022-11-12T21:18:56.911Z,21.45
2022-11-12T21:22:05.513Z,20.57
2022-11-12T21:25:13.926Z,20.80
2022-11-12T21:28:29.264Z,22.40
2022-11-12T21:31:45.014Z,21.98
2022-11-12T21:34:59.884Z,22.40
2022-11-12T21:38:07.891Z,25.63
2022-11-12T21:41:20.895Z,23.42
2022-11-12T21:44:28.949Z,23.10
2022-11-12T21:47:38.042Z,22.35
2022-11-12T21:50:46.906Z,24.23
2022-11-12T21:53:58.642Z,23.60
2022-11-12T21:57:06.910Z,24.10
2022-11-12T22:03:44.792Z,22.87
2022-11-12T22:06:59.980Z,23.20
2022-11-12T22:10:15.949Z,25.17
2022-11-12T22:13:30.894Z,25.30
2022-11-12T22:16:45.995Z,23.80
2022-11-12T22:19:54.434Z,24.12
2022-11-12T22:23:02.914Z,24.27
2022-11-12T22:26:29.935Z,22.80
2022-11-12T22:29:45.417Z,25.62
2022-11-12T22:32:53.959Z,27.35
2022-11-12T22:36:04.128Z,26.65
2022-11-12T22:39:12.918Z,25.77
2022-11-12T22:42:21.523Z,25.33
2022-11-12T22:45:29.932Z,26.85
2022-11-12T22:48:38.950Z,25.75
2022-11-12T22:51:47.983Z,25.62
2022-11-12T22:54:56.490Z,26.85
2022-11-12T22:58:05.953Z,26.33
2022-11-12T23:01:36.032Z,26.55
2022-11-12T23:04:37.906Z,28.27
2022-11-12T23:07:52.961Z,27.10
2022-11-12T23:10:55.041Z,26.02
2022-11-12T23:14:10.043Z,27.07
2022-11-12T23:17:11.789Z,28.35
2022-11-12T23:20:27.946Z,29.10
2022-11-12T23:23:29.726Z,28.35
2022-11-12T23:26:43.967Z,30.35
2022-11-12T23:29:58.960Z,27.73
2022-11-12T23:33:07.574Z,28.55
2022-11-12T23:36:17.962Z,29.42
2022-11-12T23:39:32.936Z,28.15
2022-11-12T23:42:41.629Z,26.60
2022-11-12T23:45:49.933Z,28.20
2022-11-12T23:49:06.140Z,25.95
2022-11-12T23:52:14.681Z,20.12
2022-11-12T23:55:22.957Z,20.50
2022-11-12T23:58:32.897Z,20.23
